Flight Track Log - Related Links

Times and Time Zones

All times are in EDT time to prevent confusion due to time zone crossing. See the N816BG flight status page for this flight to view local times or setup timezone preferences in your user account.

Time Position Orientation Groundspeed Altitude Reporting Facility
EDT Latitude Longitude Course Direction KTS MPH feet Rate Location/Type
Sat 02:57:29 PM 44.9033 -85.2206 185° South 258 297 5,200  Level Minneapolis Center
Sat 02:58:31 PM 44.8272 -85.2275 184° South 272 313 9,000 3,512 Climbing Minneapolis Center
Sat 02:59:32 PM 44.7456 -85.2372 185° South 284 327 12,400 2,390 Climbing Minneapolis Center
Sat 03:00:34 PM 44.6386 -85.2539 186° South 311 358 13,900 726 Climbing Minneapolis Center
Sat 03:01:36 PM 44.5381 -85.2697 186° South 351 404 13,900  Level Minneapolis Center
Sat 03:02:00 PM 44.5864 -85.2497 185° South  Level FlightAware Approximate
Sat 03:02:38 PM 44.4375 -85.2853 186° South 357 411 13,900  Level Minneapolis Center
Sat 03:03:40 PM 44.3372 -85.3014 187° South 359 413 13,900  Level Minneapolis Center
Sat 03:04:42 PM 44.2361 -85.3164 186° South 362 417 13,900  Level Minneapolis Center
Sat 03:05:43 PM 44.1350 -85.3322 186° South 362 417 13,900 98 Level Minneapolis Center
Sat 03:06:45 PM 44.0325 -85.3483 186° South 362 417 14,100 48 Climbing Minneapolis Center
Sat 03:07:47 PM 43.9333 -85.3639 186° South 361 415 14,000 -387 Descending Minneapolis Center
Sat 03:08:49 PM 43.8158 -85.3828 187° South 357 411 13,300 -878 Descending Minneapolis Center
Sat 03:09:50 PM 43.7242 -85.3956 186° South 340 391 12,200 -1,073 Descending Minneapolis Center
Sat 03:10:52 PM 43.6417 -85.4197 192° South 310 357 11,100 -1,135 Descending Minneapolis Center
Sat 03:11:41 PM 43.5764 -85.4308 187° South 301 346 10,100 -1,135 Descending Chicago Center
Sat 03:12:43 PM 43.4958 -85.4442 187° South 296 341 9,000 -1,113 Descending Chicago Center
Sat 03:13:45 PM 43.4178 -85.4575 187° South 286 329 7,800 -1,171 Descending Chicago Center
Sat 03:14:46 PM 43.3394 -85.4711 187° South 285 328 6,600 -1,122 Descending Chicago Center
Sat 03:15:48 PM 43.2636 -85.4858 188° South 280 322 5,500 -1,210 Descending Chicago Center
Sat 03:16:50 PM 43.1725 -85.5000 186° South 277 319 4,100 -1,258 Descending Chicago Center
Sat 03:17:52 PM 43.0989 -85.5133 188° South 271 312 2,900 -774 Descending Chicago Center
Sat 03:18:54 PM 43.0292 -85.5253 187° South 263 303 2,500 -194 Descending Chicago Center
Sat 03:19:56 PM 42.9764 -85.5350 188° South 217 250 2,500 -339 Level Chicago Center
Sat 03:20:58 PM 42.9353 -85.5294 174° South 174 200 1,800 -677 Descending Chicago Center
Sat 03:22:00 PM 42.8978 -85.5208 170° South 152 175 1,100 -677 Descending Chicago Center
Sat 03:24:00 PM 42.8808 -85.5228 194° South  Level Estimated

Login

Don't have an account? Register now (free) for customized features, flight alerts, and more!